KGLE/GLE METAR and TAF weather

Enter ICAO airport designator
Station Type Date Time Source
KGLE METAR 2019/06/26 05:35 UTC NOAA

KGLE 260535Z AUTO 00000KT 10SM CLR 24/22 A3004 RMK AO2 T02410215 PWINO


Station Type Date Time Source
KGLE Decoded METAR 2019/06/26 05:35 UTC NOAA

Gainesville, Gainesville Municipal Airport, TX, United States (KGLE) 33-39-05N 097-11-49W
Jun 26, 2019 - 01:35 AM EDT / 2019.06.26 0535 UTC
Wind: Calm:0
Visibility: 10 mile(s):0
Sky conditions: clear
Temperature: 75.4 F (24.1 C)
Dew Point: 70.7 F (21.5 C)
Relative Humidity: 85%
Pressure (altimeter): 30.04 in. Hg (1017 hPa)
ob: KGLE 260535Z AUTO 00000KT 10SM CLR 24/22 A3004 RMK AO2 T02410215 PWINO
cycle: 5

Station Type Date Time Source
KGLE TAF UTC NOAA

Error!

Example: see airport list